FDX76 DTTA-DGAA
Flight info
| Callsign | FDX76 |
|---|---|
| Flight time | N/A |
| Altitude | 32000 |
| Route | BELED4C BELED UG864 TBS UJ30 ELO UR978 BOD UG855 NY UB726 KILMO DCT TURUT UA603 LITEX LITEX1B |
| Aircraft | B77L/H-SDE1E2E3FGHIJ2J3J4J5M1RWXY/LB1D1 |
Departure
| Time | N/A |
|---|---|
| Airport | Tunis Carthage International Airport (DTTA) |
Arrival
| Time | 2026-04-21 12:59 |
|---|---|
| Airport | Kotoka International Airport (DGAA) |
| Time | Latitude | Longitude | Altitude | Speed | Heading |
|---|---|---|---|---|---|
| 2026-04-21 10:26 | 22.46923 | 5.32617 | 34004 ft | 438 kts | 205° |
| 2026-04-21 10:27 | 22.44991 | 5.31930 | 34009 ft | 438 kts | 205° |
| 2026-04-21 10:27 | 22.40185 | 5.30221 | 34001 ft | 438 kts | 205° |
| 2026-04-21 10:28 | 22.34405 | 5.28169 | 33998 ft | 438 kts | 205° |
| 2026-04-21 10:28 | 22.28632 | 5.26120 | 33993 ft | 437 kts | 205° |
| 2026-04-21 10:29 | 22.23810 | 5.24410 | 33987 ft | 436 kts | 205° |
| 2026-04-21 10:29 | 22.19003 | 5.22705 | 33987 ft | 435 kts | 205° |
| 2026-04-21 10:30 | 22.13262 | 5.20672 | 33987 ft | 434 kts | 205° |
| 2026-04-21 10:30 | 22.08551 | 5.19005 | 33996 ft | 433 kts | 205° |
| 2026-04-21 10:31 | 22.02807 | 5.16973 | 33992 ft | 433 kts | 205° |
| 2026-04-21 10:31 | 21.98112 | 5.15314 | 33992 ft | 432 kts | 205° |
| 2026-04-21 10:32 | 21.92408 | 5.13299 | 33991 ft | 432 kts | 205° |
| 2026-04-21 10:32 | 21.87668 | 5.11627 | 33987 ft | 432 kts | 205° |
| 2026-04-21 10:33 | 21.81936 | 5.09606 | 33990 ft | 432 kts | 205° |
| 2026-04-21 10:33 | 21.77185 | 5.07932 | 33982 ft | 432 kts | 205° |
| 2026-04-21 10:34 | 21.71549 | 5.05947 | 33977 ft | 433 kts | 205° |
| 2026-04-21 10:34 | 21.66754 | 5.04260 | 33980 ft | 434 kts | 205° |
| 2026-04-21 10:35 | 21.61993 | 5.02586 | 33982 ft | 435 kts | 205° |
| 2026-04-21 10:35 | 21.56265 | 5.00574 | 33980 ft | 437 kts | 204° |
| 2026-04-21 10:36 | 21.51460 | 4.98889 | 33977 ft | 438 kts | 204° |
| 2026-04-21 10:36 | 21.45669 | 4.96858 | 33980 ft | 438 kts | 204° |
| 2026-04-21 10:37 | 21.40255 | 4.94961 | 33978 ft | 439 kts | 204° |
| 2026-04-21 10:37 | 21.34999 | 4.93121 | 33965 ft | 439 kts | 204° |
| 2026-04-21 10:38 | 21.29734 | 4.91280 | 33968 ft | 439 kts | 204° |
| 2026-04-21 10:38 | 21.24407 | 4.89417 | 33968 ft | 439 kts | 204° |
| 2026-04-21 10:39 | 21.19251 | 4.87616 | 33978 ft | 439 kts | 204° |
| 2026-04-21 10:39 | 21.13760 | 4.85699 | 33965 ft | 439 kts | 204° |
| 2026-04-21 10:40 | 21.08729 | 4.83944 | 33966 ft | 439 kts | 204° |
| 2026-04-21 10:40 | 21.03130 | 4.81992 | 33961 ft | 440 kts | 204° |
| 2026-04-21 10:41 | 20.98177 | 4.80267 | 33967 ft | 441 kts | 204° |
| 2026-04-21 10:41 | 20.92451 | 4.78274 | 33964 ft | 441 kts | 204° |
| 2026-04-21 10:42 | 20.87610 | 4.76590 | 33962 ft | 442 kts | 204° |
| 2026-04-21 10:42 | 20.81804 | 4.74573 | 33963 ft | 442 kts | 204° |
| 2026-04-21 10:43 | 20.77071 | 4.72930 | 33963 ft | 442 kts | 204° |
| 2026-04-21 10:43 | 20.71156 | 4.70877 | 33960 ft | 442 kts | 204° |
| 2026-04-21 10:44 | 20.66322 | 4.69201 | 33959 ft | 442 kts | 204° |
| 2026-04-21 10:44 | 20.60490 | 4.67181 | 33953 ft | 441 kts | 204° |
| 2026-04-21 10:45 | 20.55626 | 4.65497 | 33955 ft | 441 kts | 205° |
| 2026-04-21 10:45 | 20.49819 | 4.63488 | 33952 ft | 440 kts | 205° |
| 2026-04-21 10:46 | 20.45005 | 4.61824 | 33949 ft | 440 kts | 205° |
| 2026-04-21 10:46 | 20.39210 | 4.59821 | 33949 ft | 439 kts | 205° |
| 2026-04-21 10:47 | 20.34452 | 4.58179 | 33956 ft | 438 kts | 205° |
| 2026-04-21 10:47 | 20.28662 | 4.56181 | 33943 ft | 438 kts | 205° |
| 2026-04-21 10:48 | 20.23814 | 4.54511 | 33945 ft | 437 kts | 205° |
| 2026-04-21 10:48 | 20.18043 | 4.52523 | 33940 ft | 437 kts | 205° |
| 2026-04-21 10:49 | 20.13321 | 4.50897 | 33938 ft | 436 kts | 205° |
| 2026-04-21 10:49 | 20.07533 | 4.48906 | 33939 ft | 436 kts | 205° |
| 2026-04-21 10:50 | 20.02786 | 4.47273 | 33940 ft | 436 kts | 205° |
| 2026-04-21 10:50 | 19.97029 | 4.45295 | 33938 ft | 437 kts | 205° |
| 2026-04-21 10:51 | 19.92200 | 4.43638 | 33940 ft | 437 kts | 205° |
| 2026-04-21 10:51 | 19.86421 | 4.41655 | 33947 ft | 438 kts | 205° |
| 2026-04-21 10:52 | 19.81566 | 4.39991 | 33941 ft | 439 kts | 204° |
| 2026-04-21 10:52 | 19.75731 | 4.37991 | 33940 ft | 441 kts | 204° |
| 2026-04-21 10:53 | 19.70945 | 4.36353 | 33938 ft | 442 kts | 204° |
| 2026-04-21 10:53 | 19.65113 | 4.34358 | 33952 ft | 443 kts | 204° |
| 2026-04-21 10:54 | 19.60204 | 4.32680 | 33934 ft | 444 kts | 204° |
| 2026-04-21 10:54 | 19.54340 | 4.30677 | 33945 ft | 445 kts | 204° |
| 2026-04-21 10:55 | 19.49425 | 4.29000 | 33940 ft | 445 kts | 204° |
| 2026-04-21 10:55 | 19.43535 | 4.26991 | 33930 ft | 446 kts | 204° |
| 2026-04-21 10:56 | 19.38653 | 4.25327 | 33938 ft | 447 kts | 204° |
| 2026-04-21 10:56 | 19.32740 | 4.23312 | 33932 ft | 448 kts | 204° |
| 2026-04-21 10:57 | 19.27823 | 4.21639 | 33931 ft | 449 kts | 204° |
| 2026-04-21 10:57 | 19.21846 | 4.19605 | 33932 ft | 450 kts | 204° |
| 2026-04-21 10:58 | 19.16962 | 4.17944 | 33931 ft | 450 kts | 204° |
| 2026-04-21 10:58 | 19.11003 | 4.15905 | 33928 ft | 451 kts | 205° |
| 2026-04-21 10:59 | 19.06102 | 4.14154 | 33921 ft | 451 kts | 205° |
| 2026-04-21 10:59 | 19.00163 | 4.12007 | 33926 ft | 452 kts | 205° |
| 2026-04-21 11:00 | 18.95180 | 4.10212 | 33926 ft | 453 kts | 205° |
| 2026-04-21 11:00 | 18.89209 | 4.08071 | 33926 ft | 454 kts | 205° |
| 2026-04-21 11:01 | 18.84290 | 4.06313 | 33923 ft | 454 kts | 205° |
| 2026-04-21 11:01 | 18.78282 | 4.04167 | 33914 ft | 455 kts | 206° |
| 2026-04-21 11:02 | 18.70332 | 4.01329 | 33923 ft | 455 kts | 206° |
| 2026-04-21 11:02 | 18.65327 | 3.99543 | 33915 ft | 456 kts | 206° |
| 2026-04-21 11:03 | 18.59369 | 3.97419 | 33917 ft | 457 kts | 206° |
| 2026-04-21 11:03 | 18.54345 | 3.95629 | 33921 ft | 457 kts | 206° |
| 2026-04-21 11:04 | 18.48372 | 3.93503 | 33919 ft | 458 kts | 206° |
| 2026-04-21 11:04 | 18.43342 | 3.91713 | 33915 ft | 459 kts | 206° |
| 2026-04-21 11:05 | 18.37356 | 3.89585 | 33890 ft | 459 kts | 206° |
| 2026-04-21 11:05 | 18.32301 | 3.87790 | 33892 ft | 460 kts | 206° |
| 2026-04-21 11:06 | 18.26271 | 3.85649 | 33885 ft | 460 kts | 206° |
| 2026-04-21 11:06 | 18.21207 | 3.83853 | 33888 ft | 461 kts | 206° |
| 2026-04-21 11:07 | 18.15184 | 3.81717 | 33881 ft | 461 kts | 206° |
| 2026-04-21 11:07 | 18.10178 | 3.79943 | 33911 ft | 462 kts | 206° |
| 2026-04-21 11:08 | 18.04083 | 3.77785 | 33908 ft | 462 kts | 207° |
| 2026-04-21 11:08 | 17.98980 | 3.75979 | 33914 ft | 463 kts | 207° |
| 2026-04-21 11:09 | 17.92894 | 3.73827 | 33906 ft | 463 kts | 207° |
| 2026-04-21 11:09 | 17.87835 | 3.72040 | 33909 ft | 464 kts | 207° |
| 2026-04-21 11:10 | 17.81716 | 3.69879 | 33909 ft | 464 kts | 207° |
| 2026-04-21 11:10 | 17.77021 | 3.68222 | 33904 ft | 465 kts | 208° |
| 2026-04-21 11:11 | 17.70506 | 3.65924 | 33895 ft | 466 kts | 208° |
| 2026-04-21 11:11 | 17.65918 | 3.64306 | 33909 ft | 466 kts | 208° |
| 2026-04-21 11:12 | 17.60318 | 3.62334 | 33911 ft | 467 kts | 208° |
| 2026-04-21 11:12 | 17.54804 | 3.60393 | 33904 ft | 468 kts | 208° |
| 2026-04-21 11:13 | 17.49003 | 3.58352 | 33897 ft | 468 kts | 208° |
| 2026-04-21 11:13 | 17.43633 | 3.56465 | 33899 ft | 469 kts | 208° |
| 2026-04-21 11:14 | 17.37733 | 3.54392 | 33894 ft | 469 kts | 208° |
| 2026-04-21 11:14 | 17.32480 | 3.52546 | 33895 ft | 469 kts | 208° |
| 2026-04-21 11:15 | 17.26458 | 3.50435 | 33889 ft | 470 kts | 209° |
| 2026-04-21 11:15 | 17.21299 | 3.48630 | 33888 ft | 470 kts | 209° |
| 2026-04-21 11:16 | 17.15092 | 3.46459 | 33885 ft | 470 kts | 209° |
| 2026-04-21 11:16 | 17.10050 | 3.44696 | 33886 ft | 470 kts | 208° |
| 2026-04-21 11:17 | 17.03750 | 3.42495 | 33881 ft | 471 kts | 208° |
| 2026-04-21 11:17 | 16.98578 | 3.40688 | 33886 ft | 471 kts | 208° |
| 2026-04-21 11:18 | 16.92374 | 3.38523 | 33878 ft | 471 kts | 208° |
| 2026-04-21 11:18 | 16.87268 | 3.36742 | 33874 ft | 471 kts | 208° |
| 2026-04-21 11:19 | 16.81058 | 3.34578 | 33876 ft | 470 kts | 208° |
| 2026-04-21 11:19 | 16.75921 | 3.32788 | 33872 ft | 470 kts | 208° |
| 2026-04-21 11:20 | 16.69680 | 3.30615 | 33864 ft | 471 kts | 208° |
| 2026-04-21 11:20 | 16.64562 | 3.28834 | 33869 ft | 471 kts | 208° |
| 2026-04-21 11:21 | 16.58371 | 3.26681 | 33860 ft | 471 kts | 208° |
| 2026-04-21 11:21 | 16.53206 | 3.24886 | 33867 ft | 472 kts | 208° |
| 2026-04-21 11:22 | 16.46950 | 3.22713 | 33858 ft | 473 kts | 208° |
| 2026-04-21 11:22 | 16.41739 | 3.20905 | 33860 ft | 473 kts | 208° |
| 2026-04-21 11:23 | 16.35499 | 3.18740 | 33862 ft | 474 kts | 208° |
| 2026-04-21 11:23 | 16.30481 | 3.17000 | 33857 ft | 474 kts | 208° |
| 2026-04-21 11:24 | 16.24210 | 3.14827 | 33857 ft | 475 kts | 208° |
| 2026-04-21 11:24 | 16.19113 | 3.13066 | 33859 ft | 475 kts | 207° |
| 2026-04-21 11:25 | 16.12868 | 3.10911 | 33852 ft | 476 kts | 207° |
| 2026-04-21 11:25 | 16.07703 | 3.09129 | 33851 ft | 476 kts | 207° |
| 2026-04-21 11:26 | 16.01411 | 3.06959 | 33852 ft | 477 kts | 207° |
| 2026-04-21 11:26 | 15.96290 | 3.05193 | 33848 ft | 477 kts | 207° |
| 2026-04-21 11:27 | 15.89979 | 3.03019 | 33852 ft | 477 kts | 207° |
| 2026-04-21 11:27 | 15.84818 | 3.01242 | 33848 ft | 478 kts | 207° |
| 2026-04-21 11:28 | 15.78512 | 2.99072 | 33845 ft | 478 kts | 207° |
| 2026-04-21 11:28 | 15.73295 | 2.97277 | 33851 ft | 479 kts | 207° |
| 2026-04-21 11:29 | 15.66989 | 2.95110 | 33846 ft | 479 kts | 207° |
| 2026-04-21 11:29 | 15.61720 | 2.93300 | 33848 ft | 480 kts | 207° |
| 2026-04-21 11:30 | 15.55405 | 2.91133 | 33846 ft | 480 kts | 207° |
| 2026-04-21 11:30 | 15.50179 | 2.89340 | 33853 ft | 481 kts | 207° |
| 2026-04-21 11:31 | 15.43810 | 2.87155 | 33846 ft | 482 kts | 207° |
| 2026-04-21 11:31 | 15.38544 | 2.85351 | 33850 ft | 482 kts | 207° |
| 2026-04-21 11:32 | 15.32180 | 2.83171 | 33853 ft | 483 kts | 207° |
| 2026-04-21 11:32 | 15.26842 | 2.81344 | 33852 ft | 484 kts | 206° |
| 2026-04-21 11:33 | 15.20476 | 2.79166 | 33852 ft | 484 kts | 206° |
| 2026-04-21 11:33 | 15.15250 | 2.77379 | 33854 ft | 484 kts | 206° |
| 2026-04-21 11:34 | 15.08822 | 2.75183 | 33856 ft | 485 kts | 206° |
| 2026-04-21 11:34 | 15.03536 | 2.73378 | 33857 ft | 485 kts | 206° |
| 2026-04-21 11:35 | 14.97112 | 2.71186 | 33854 ft | 485 kts | 206° |
| 2026-04-21 11:35 | 14.91835 | 2.69387 | 33855 ft | 485 kts | 206° |
| 2026-04-21 11:36 | 14.85404 | 2.67194 | 33857 ft | 484 kts | 206° |
| 2026-04-21 11:36 | 14.80307 | 2.65458 | 33862 ft | 484 kts | 206° |
| 2026-04-21 11:37 | 14.73899 | 2.63276 | 33843 ft | 484 kts | 206° |
| 2026-04-21 11:37 | 14.68989 | 2.61604 | 33861 ft | 484 kts | 206° |
| 2026-04-21 11:38 | 14.62576 | 2.59423 | 33862 ft | 485 kts | 206° |
| 2026-04-21 11:38 | 14.57677 | 2.57757 | 33860 ft | 485 kts | 206° |
| 2026-04-21 11:39 | 14.51249 | 2.55573 | 33859 ft | 485 kts | 206° |
| 2026-04-21 11:39 | 14.46345 | 2.53907 | 33860 ft | 486 kts | 206° |
| 2026-04-21 11:40 | 14.39966 | 2.51742 | 33857 ft | 486 kts | 206° |
| 2026-04-21 11:40 | 14.34832 | 2.50001 | 33862 ft | 486 kts | 206° |
| 2026-04-21 11:41 | 14.28398 | 2.47820 | 33863 ft | 487 kts | 206° |
| 2026-04-21 11:41 | 14.23185 | 2.46053 | 33862 ft | 487 kts | 205° |
| 2026-04-21 11:42 | 14.16740 | 2.43870 | 33861 ft | 487 kts | 205° |
| 2026-04-21 11:42 | 14.11576 | 2.42122 | 33858 ft | 487 kts | 205° |
| 2026-04-21 11:43 | 14.05140 | 2.39945 | 33868 ft | 487 kts | 205° |
| 2026-04-21 11:43 | 13.99887 | 2.38168 | 33864 ft | 487 kts | 205° |
| 2026-04-21 11:44 | 13.93444 | 2.35991 | 33862 ft | 487 kts | 205° |
| 2026-04-21 11:44 | 13.88172 | 2.34210 | 33871 ft | 487 kts | 205° |
| 2026-04-21 11:45 | 13.81722 | 2.32033 | 33867 ft | 488 kts | 205° |
| 2026-04-21 11:45 | 13.76380 | 2.30230 | 33875 ft | 488 kts | 205° |
| 2026-04-21 11:46 | 13.69968 | 2.28068 | 33878 ft | 489 kts | 205° |
| 2026-04-21 11:46 | 13.64630 | 2.26268 | 33877 ft | 489 kts | 205° |
| 2026-04-21 11:47 | 13.58148 | 2.24084 | 33882 ft | 489 kts | 205° |
| 2026-04-21 11:47 | 13.52918 | 2.22322 | 33883 ft | 490 kts | 205° |
| 2026-04-21 11:48 | 13.46431 | 2.20152 | 33884 ft | 491 kts | 204° |
| 2026-04-21 11:48 | 13.41126 | 2.18502 | 33887 ft | 492 kts | 203° |
| 2026-04-21 11:49 | 13.34547 | 2.16525 | 33883 ft | 493 kts | 203° |
| 2026-04-21 11:49 | 13.29405 | 2.14976 | 33875 ft | 493 kts | 203° |
| 2026-04-21 11:50 | 13.22817 | 2.12974 | 33874 ft | 493 kts | 203° |
| 2026-04-21 11:50 | 13.17401 | 2.11319 | 33860 ft | 493 kts | 203° |
| 2026-04-21 11:51 | 13.10814 | 2.09306 | 33856 ft | 494 kts | 203° |
| 2026-04-21 11:51 | 13.05476 | 2.07676 | 33851 ft | 494 kts | 203° |
| 2026-04-21 11:52 | 12.98874 | 2.05662 | 33845 ft | 495 kts | 203° |
| 2026-04-21 11:52 | 12.93433 | 2.04003 | 33846 ft | 496 kts | 203° |
| 2026-04-21 11:53 | 12.86819 | 2.01989 | 33847 ft | 496 kts | 203° |
| 2026-04-21 11:53 | 12.81443 | 2.00352 | 33840 ft | 497 kts | 203° |
| 2026-04-21 11:54 | 12.74807 | 1.98332 | 33839 ft | 497 kts | 203° |
| 2026-04-21 11:54 | 12.69355 | 1.96673 | 33836 ft | 498 kts | 203° |
| 2026-04-21 11:55 | 12.62717 | 1.94655 | 33837 ft | 498 kts | 202° |
| 2026-04-21 11:55 | 12.57224 | 1.92985 | 33834 ft | 498 kts | 202° |
| 2026-04-21 11:56 | 12.50576 | 1.90966 | 33829 ft | 498 kts | 202° |
| 2026-04-21 11:56 | 12.46275 | 1.89660 | 33830 ft | 498 kts | 202° |
| 2026-04-21 11:57 | 12.39618 | 1.87640 | 33829 ft | 498 kts | 202° |
| 2026-04-21 11:57 | 12.34114 | 1.85970 | 33825 ft | 498 kts | 202° |
| 2026-04-21 11:58 | 12.27463 | 1.83954 | 33825 ft | 498 kts | 202° |
| 2026-04-21 11:58 | 12.22102 | 1.82329 | 33818 ft | 498 kts | 202° |
| 2026-04-21 11:59 | 12.15454 | 1.80315 | 33816 ft | 498 kts | 202° |
| 2026-04-21 11:59 | 12.10027 | 1.78672 | 33820 ft | 498 kts | 202° |
| 2026-04-21 12:00 | 12.03383 | 1.76661 | 33815 ft | 498 kts | 202° |
| 2026-04-21 12:00 | 11.97901 | 1.75003 | 33812 ft | 498 kts | 202° |
| 2026-04-21 12:01 | 11.91239 | 1.72988 | 33805 ft | 499 kts | 202° |
| 2026-04-21 12:01 | 11.85744 | 1.71327 | 33814 ft | 499 kts | 202° |
| 2026-04-21 12:02 | 11.76981 | 1.68681 | 33816 ft | 500 kts | 202° |
| 2026-04-21 12:03 | 11.70359 | 1.66682 | 33807 ft | 500 kts | 202° |
| 2026-04-21 12:03 | 11.64901 | 1.65034 | 33812 ft | 501 kts | 202° |
| 2026-04-21 12:04 | 11.58212 | 1.63017 | 33811 ft | 501 kts | 202° |
| 2026-04-21 12:04 | 11.52744 | 1.61368 | 33809 ft | 501 kts | 201° |
| 2026-04-21 12:05 | 11.46037 | 1.59348 | 33811 ft | 502 kts | 201° |
| 2026-04-21 12:05 | 11.40566 | 1.57700 | 33815 ft | 502 kts | 201° |
| 2026-04-21 12:06 | 11.33864 | 1.55682 | 33814 ft | 502 kts | 201° |
| 2026-04-21 12:06 | 11.28390 | 1.54035 | 33803 ft | 502 kts | 201° |
| 2026-04-21 12:07 | 11.21682 | 1.52018 | 33809 ft | 502 kts | 201° |
| 2026-04-21 12:07 | 11.16159 | 1.50357 | 33813 ft | 502 kts | 201° |
| 2026-04-21 12:08 | 11.09455 | 1.48341 | 33813 ft | 502 kts | 201° |
| 2026-04-21 12:08 | 11.03969 | 1.46693 | 33807 ft | 502 kts | 201° |
| 2026-04-21 12:09 | 10.97271 | 1.44680 | 33815 ft | 501 kts | 201° |
| 2026-04-21 12:09 | 10.91803 | 1.43028 | 33814 ft | 501 kts | 201° |
| 2026-04-21 12:10 | 10.85163 | 1.41018 | 33821 ft | 500 kts | 201° |
| 2026-04-21 12:10 | 10.79652 | 1.39351 | 33818 ft | 500 kts | 201° |
| 2026-04-21 12:11 | 10.72982 | 1.37336 | 33822 ft | 500 kts | 201° |
| 2026-04-21 12:11 | 10.67490 | 1.35677 | 33837 ft | 500 kts | 201° |
| 2026-04-21 12:12 | 10.60811 | 1.33661 | 33836 ft | 499 kts | 201° |
| 2026-04-21 12:12 | 10.55369 | 1.32019 | 33825 ft | 499 kts | 201° |
| 2026-04-21 12:13 | 10.48707 | 1.30010 | 33837 ft | 499 kts | 201° |
| 2026-04-21 12:13 | 10.43317 | 1.28385 | 33823 ft | 499 kts | 201° |
| 2026-04-21 12:14 | 10.36660 | 1.26378 | 33841 ft | 499 kts | 201° |
| 2026-04-21 12:14 | 10.31214 | 1.24737 | 33833 ft | 499 kts | 201° |
| 2026-04-21 12:15 | 10.24549 | 1.22731 | 33837 ft | 499 kts | 201° |
| 2026-04-21 12:15 | 10.19058 | 1.21078 | 33835 ft | 499 kts | 201° |
| 2026-04-21 12:16 | 10.12397 | 1.19074 | 33832 ft | 498 kts | 201° |
| 2026-04-21 12:16 | 10.06909 | 1.17423 | 33875 ft | 498 kts | 201° |
| 2026-04-21 12:17 | 10.00295 | 1.15435 | 33898 ft | 498 kts | 201° |
| 2026-04-21 12:17 | 9.94851 | 1.13799 | 33936 ft | 498 kts | 200° |
| 2026-04-21 12:18 | 9.88197 | 1.11799 | 33968 ft | 499 kts | 201° |
| 2026-04-21 12:18 | 9.82707 | 1.10151 | 33953 ft | 500 kts | 200° |
| 2026-04-21 12:19 | 9.76019 | 1.08143 | 33973 ft | 501 kts | 200° |
| 2026-04-21 12:19 | 9.70550 | 1.06502 | 33964 ft | 502 kts | 200° |
| 2026-04-21 12:20 | 9.63834 | 1.04487 | 33944 ft | 503 kts | 200° |
| 2026-04-21 12:20 | 9.58358 | 1.02845 | 33911 ft | 503 kts | 200° |
| 2026-04-21 12:21 | 9.51634 | 1.00825 | 33885 ft | 501 kts | 202° |
| 2026-04-21 12:21 | 9.46527 | 0.98331 | 33863 ft | 491 kts | 218° |
| 2026-04-21 12:22 | 9.41534 | 0.93736 | 33838 ft | 481 kts | 234° |
| 2026-04-21 12:22 | 9.38083 | 0.89422 | 33844 ft | 481 kts | 234° |
| 2026-04-21 12:23 | 9.33876 | 0.84135 | 33838 ft | 483 kts | 234° |
| 2026-04-21 12:23 | 9.30406 | 0.79833 | 33842 ft | 484 kts | 234° |
| 2026-04-21 12:24 | 9.26116 | 0.74567 | 33841 ft | 485 kts | 234° |
| 2026-04-21 12:24 | 9.22598 | 0.70264 | 33829 ft | 486 kts | 234° |
| 2026-04-21 12:25 | 9.18286 | 0.64988 | 33833 ft | 486 kts | 234° |
| 2026-04-21 12:25 | 9.14791 | 0.60710 | 33832 ft | 486 kts | 233° |
| 2026-04-21 12:26 | 9.10481 | 0.55437 | 33829 ft | 486 kts | 233° |
| 2026-04-21 12:26 | 9.06956 | 0.51124 | 33809 ft | 486 kts | 233° |
| 2026-04-21 12:27 | 9.02643 | 0.45851 | 33824 ft | 486 kts | 233° |
| 2026-04-21 12:27 | 8.99144 | 0.41576 | 33825 ft | 486 kts | 233° |
| 2026-04-21 12:28 | 8.94834 | 0.36309 | 33821 ft | 486 kts | 233° |
| 2026-04-21 12:28 | 8.91275 | 0.31962 | 33822 ft | 486 kts | 233° |
| 2026-04-21 12:29 | 8.86959 | 0.26692 | 33819 ft | 486 kts | 233° |
| 2026-04-21 12:29 | 8.83426 | 0.22380 | 33818 ft | 486 kts | 233° |
| 2026-04-21 12:30 | 8.79103 | 0.17105 | 33823 ft | 487 kts | 233° |
| 2026-04-21 12:30 | 8.75565 | 0.12789 | 33822 ft | 487 kts | 233° |
| 2026-04-21 12:31 | 8.71236 | 0.07510 | 33826 ft | 487 kts | 233° |
| 2026-04-21 12:31 | 8.67639 | 0.03172 | 33815 ft | 486 kts | 229° |
| 2026-04-21 12:31 | 8.65012 | 0.00986 | 33825 ft | 493 kts | 213° |
| 2026-04-21 12:32 | 8.61932 | -0.00477 | 33834 ft | 499 kts | 201° |
| 2026-04-21 12:32 | 8.56199 | -0.01331 | 33836 ft | 505 kts | 185° |
| 2026-04-21 12:33 | 8.50329 | -0.01519 | 33828 ft | 509 kts | 185° |
| 2026-04-21 12:33 | 8.43307 | -0.01768 | 33832 ft | 512 kts | 185° |
| 2026-04-21 12:34 | 8.37328 | -0.02035 | 33825 ft | 513 kts | 185° |
| 2026-04-21 12:34 | 8.30286 | -0.02383 | 33826 ft | 514 kts | 185° |
| 2026-04-21 12:35 | 8.24295 | -0.02685 | 33819 ft | 514 kts | 185° |
| 2026-04-21 12:35 | 8.17242 | -0.03037 | 33822 ft | 513 kts | 185° |
| 2026-04-21 12:36 | 8.11310 | -0.03330 | 33825 ft | 512 kts | 185° |
| 2026-04-21 12:36 | 8.04285 | -0.03677 | 33824 ft | 511 kts | 185° |
| 2026-04-21 12:37 | 7.98393 | -0.03968 | 33828 ft | 510 kts | 185° |
| 2026-04-21 12:37 | 7.91467 | -0.04309 | 33824 ft | 509 kts | 185° |
| 2026-04-21 12:38 | 7.85581 | -0.04600 | 33827 ft | 508 kts | 185° |
| 2026-04-21 12:38 | 7.78629 | -0.04944 | 33826 ft | 508 kts | 185° |
| 2026-04-21 12:39 | 7.72771 | -0.05232 | 33825 ft | 508 kts | 185° |
| 2026-04-21 12:39 | 7.65783 | -0.05577 | 33841 ft | 509 kts | 185° |
| 2026-04-21 12:40 | 7.59818 | -0.05872 | 33842 ft | 514 kts | 185° |
| 2026-04-21 12:40 | 7.52738 | -0.06222 | 33842 ft | 518 kts | 185° |
| 2026-04-21 12:41 | 7.47900 | -0.06460 | 33845 ft | 521 kts | 185° |
| 2026-04-21 12:41 | 7.39585 | -0.06869 | 33837 ft | 523 kts | 185° |
| 2026-04-21 12:42 | 7.33773 | -0.07155 | 33834 ft | 523 kts | 185° |
| 2026-04-21 12:42 | 7.27507 | -0.07463 | 33835 ft | 523 kts | 185° |
| 2026-04-21 12:43 | 7.20650 | -0.07800 | 33838 ft | 522 kts | 185° |
| 2026-04-21 12:43 | 7.14357 | -0.08110 | 33840 ft | 521 kts | 185° |
| 2026-04-21 12:44 | 7.07634 | -0.08441 | 33838 ft | 520 kts | 184° |
| 2026-04-21 12:44 | 7.01246 | -0.08755 | 33842 ft | 518 kts | 184° |
| 2026-04-21 12:45 | 6.94723 | -0.09075 | 33835 ft | 516 kts | 184° |
| 2026-04-21 12:45 | 6.88214 | -0.09396 | 33840 ft | 513 kts | 184° |
| 2026-04-21 12:46 | 6.81900 | -0.09706 | 33843 ft | 511 kts | 183° |
| 2026-04-21 12:46 | 6.75343 | -0.10028 | 33841 ft | 508 kts | 183° |
| 2026-04-21 12:47 | 6.69193 | -0.10330 | 33841 ft | 506 kts | 183° |
| 2026-04-21 12:47 | 6.62480 | -0.10610 | 33849 ft | 505 kts | 179° |
| 2026-04-21 12:48 | 6.56532 | -0.10182 | 33699 ft | 505 kts | 173° |
| 2026-04-21 12:48 | 6.53220 | -0.09774 | 32947 ft | 501 kts | 173° |
| 2026-04-21 12:48 | 6.49780 | -0.09333 | 31568 ft | 496 kts | 173° |
| 2026-04-21 12:48 | 6.46365 | -0.08919 | 30288 ft | 493 kts | 174° |
| 2026-04-21 12:49 | 6.44123 | -0.08666 | 29389 ft | 491 kts | 175° |
| 2026-04-21 12:49 | 6.40880 | -0.08323 | 28038 ft | 487 kts | 175° |
| 2026-04-21 12:49 | 6.37528 | -0.07986 | 26700 ft | 481 kts | 175° |
| 2026-04-21 12:49 | 6.34217 | -0.07663 | 25417 ft | 475 kts | 174° |
| 2026-04-21 12:50 | 6.32159 | -0.07463 | 24640 ft | 471 kts | 174° |
| 2026-04-21 12:50 | 6.28913 | -0.07146 | 23435 ft | 463 kts | 173° |
| 2026-04-21 12:50 | 6.25729 | -0.06833 | 22025 ft | 455 kts | 173° |
| 2026-04-21 12:50 | 6.22601 | -0.06523 | 20672 ft | 448 kts | 173° |
| 2026-04-21 12:51 | 6.20784 | -0.06342 | 19913 ft | 444 kts | 173° |
| 2026-04-21 12:51 | 6.17566 | -0.06023 | 18577 ft | 436 kts | 173° |
| 2026-04-21 12:51 | 6.14562 | -0.05725 | 17320 ft | 428 kts | 173° |
| 2026-04-21 12:51 | 6.11630 | -0.05435 | 16096 ft | 418 kts | 173° |
| 2026-04-21 12:52 | 6.09824 | -0.05257 | 15360 ft | 412 kts | 172° |
| 2026-04-21 12:52 | 6.07020 | -0.04981 | 14000 ft | 408 kts | 172° |
| 2026-04-21 12:52 | 6.04196 | -0.04701 | 12664 ft | 403 kts | 171° |
| 2026-04-21 12:52 | 6.01438 | -0.04429 | 11525 ft | 392 kts | 170° |
| 2026-04-21 12:53 | 5.99762 | -0.04264 | 10857 ft | 385 kts | 170° |
| 2026-04-21 12:53 | 5.97125 | -0.04005 | 9823 ft | 375 kts | 169° |
| 2026-04-21 12:53 | 5.94548 | -0.03751 | 8710 ft | 367 kts | 171° |
| 2026-04-21 12:53 | 5.92014 | -0.03770 | 7608 ft | 365 kts | 188° |
| 2026-04-21 12:54 | 5.90450 | -0.04275 | 6936 ft | 364 kts | 201° |
| 2026-04-21 12:54 | 5.88212 | -0.05324 | 6264 ft | 353 kts | 201° |
| 2026-04-21 12:54 | 5.85986 | -0.06276 | 5261 ft | 344 kts | 201° |
| 2026-04-21 12:54 | 5.83772 | -0.07174 | 4086 ft | 342 kts | 201° |
| 2026-04-21 12:55 | 5.82349 | -0.07748 | 3618 ft | 335 kts | 201° |
| 2026-04-21 12:55 | 5.80209 | -0.08620 | 3416 ft | 325 kts | 202° |
| 2026-04-21 12:55 | 5.78204 | -0.09445 | 3664 ft | 298 kts | 201° |
| 2026-04-21 12:55 | 5.76311 | -0.10226 | 3504 ft | 293 kts | 201° |
| 2026-04-21 12:56 | 5.75140 | -0.10706 | 3557 ft | 286 kts | 201° |
| 2026-04-21 12:56 | 5.73350 | -0.11435 | 3620 ft | 270 kts | 201° |
| 2026-04-21 12:56 | 5.71626 | -0.12133 | 3270 ft | 267 kts | 202° |
| 2026-04-21 12:56 | 5.69882 | -0.12854 | 2708 ft | 271 kts | 202° |
| 2026-04-21 12:57 | 5.68803 | -0.13302 | 2511 ft | 251 kts | 203° |
| 2026-04-21 12:57 | 5.67296 | -0.13924 | 2116 ft | 227 kts | 202° |
| 2026-04-21 12:57 | 5.65878 | -0.14511 | 1495 ft | 214 kts | 203° |
| 2026-04-21 12:57 | 5.64546 | -0.15058 | 1033 ft | 202 kts | 202° |
| 2026-04-21 12:58 | 5.63762 | -0.15366 | 793 ft | 200 kts | 203° |
| 2026-04-21 12:58 | 5.62511 | -0.15884 | 478 ft | 187 kts | 205° |
| 2026-04-21 12:58 | 5.61349 | -0.16376 | 228 ft | 176 kts | 204° |
| 2026-04-21 12:58 | 5.60302 | -0.16811 | 220 ft | 136 kts | 198° |
| 2026-04-21 12:59 | 5.59888 | -0.17003 | 215 ft | 83 kts | 206° |
| 2026-04-21 12:59 | 5.59433 | -0.17177 | 213 ft | 68 kts | 202° |
| 2026-04-21 12:59 | 5.59180 | -0.17374 | 207 ft | 34 kts | 291° |
| 2026-04-21 12:59 | 5.59340 | -0.17419 | 212 ft | 20 kts | 21° |
| 2026-04-21 13:00 | 5.59421 | -0.17384 | 214 ft | 20 kts | 23° |
| 2026-04-21 13:00 | 5.59547 | -0.17332 | 214 ft | 20 kts | 22° |
| 2026-04-21 13:00 | 5.59677 | -0.17279 | 218 ft | 22 kts | 22° |
| 2026-04-21 13:00 | 5.59855 | -0.17208 | 219 ft | 33 kts | 21° |
| 2026-04-21 13:01 | 5.59974 | -0.17159 | 219 ft | 3 kts | 24° |
| 2026-04-21 13:01 | 5.60037 | -0.17131 | 217 ft | 16 kts | 24° |
| 2026-04-21 13:01 | 5.60047 | -0.17127 | 219 ft | 4 kts | 23° |
| 2026-04-21 13:01 | 5.60053 | -0.17124 | 218 ft | 0 kts | 23° |
| 2026-04-21 13:03 | 5.60055 | -0.17123 | 218 ft | 16 kts | 22° |
| 2026-04-21 13:04 | 5.60021 | -0.17137 | 214 ft | 16 kts | 250° |
| 2026-04-21 13:04 | 5.59984 | -0.17180 | 224 ft | 0 kts | 222° |
| 2026-04-21 13:09 | 5.59953 | -0.17204 | 222 ft | 16 kts | 201° |
| 2026-04-21 13:09 | 5.59886 | -0.17139 | 221 ft | 16 kts | 113° |
| 2026-04-21 13:09 | 5.59857 | -0.17054 | 215 ft | 7 kts | 83° |
| 2026-04-21 13:09 | 5.59856 | -0.17071 | 217 ft | 14 kts | 275° |
| 2026-04-21 13:10 | 5.59829 | -0.17132 | 219 ft | 13 kts | 248° |
| 2026-04-21 13:10 | 5.59852 | -0.17193 | 223 ft | 11 kts | 344° |
| 2026-04-21 13:10 | 5.59939 | -0.17171 | 215 ft | 16 kts | 22° |
| 2026-04-21 13:10 | 5.60006 | -0.17144 | 219 ft | 16 kts | 22° |
| 2026-04-21 13:11 | 5.60101 | -0.17104 | 220 ft | 16 kts | 22° |
| 2026-04-21 13:11 | 5.60202 | -0.17063 | 218 ft | 16 kts | 22° |
| 2026-04-21 13:11 | 5.60302 | -0.17021 | 219 ft | 16 kts | 22° |
| 2026-04-21 13:11 | 5.60369 | -0.16994 | 224 ft | 16 kts | 22° |
| 2026-04-21 13:12 | 5.60466 | -0.16953 | 229 ft | 16 kts | 22° |
| 2026-04-21 13:12 | 5.60567 | -0.16912 | 227 ft | 16 kts | 22° |
| 2026-04-21 13:12 | 5.60637 | -0.16887 | 227 ft | 13 kts | 330° |
| 2026-04-21 13:12 | 5.60649 | -0.16930 | 226 ft | 6 kts | 275° |
| 2026-04-21 13:13 | 5.60661 | -0.16973 | 228 ft | 4 kts | 290° |
| 2026-04-21 13:13 | 5.60678 | -0.17015 | 226 ft | 3 kts | 292° |
| 2026-04-21 13:13 | 5.60678 | -0.17016 | 226 ft | 2 kts | 292° |